Time;durP1;ratioP1;P1;durP2;ratioP2;P2;SDS_P1;SDS_P2;PMS_P1;PMS_P2;Temp;Humidity;BMP_temperature;BMP_pressure;BME280_temperature;BME280_humidity;BME280_pressure;Samples;Min_cycle;Max_cycle;Signal;HPM_P1;HPM_P2
2023/04/21 00:00:23;;;;;;;33.83;18.13;;;7.90;99.90;;;;;;5063419;28;20029;-72
2023/04/21 00:02:49;;;;;;;37.70;18.65;;;7.80;99.90;;;;;;5062656;28;20059;-72
2023/04/21 00:05:14;;;;;;;36.55;18.98;;;7.80;99.90;;;;;;5062549;28;20029;-72
2023/04/21 00:07:40;;;;;;;41.00;18.92;;;7.80;99.90;;;;;;5063603;28;20578;-73
2023/04/21 00:10:10;;;;;;;42.70;19.65;;;7.80;99.90;;;;;;5063520;28;20068;-73
2023/04/21 00:12:37;;;;;;;41.15;19.58;;;7.80;99.90;;;;;;5061997;28;20074;-71
2023/04/21 00:15:03;;;;;;;41.17;20.10;;;7.90;99.90;;;;;;5061236;28;20025;-71
2023/04/21 00:17:29;;;;;;;42.67;19.75;;;7.70;99.90;;;;;;5061593;28;20025;-72
2023/04/21 00:19:56;;;;;;;38.72;19.30;;;7.70;99.90;;;;;;5062287;28;20108;-74
2023/04/21 00:22:21;;;;;;;48.17;19.80;;;7.70;99.90;;;;;;5060658;28;20025;-72
2023/04/21 00:24:47;;;;;;;41.03;20.20;;;7.70;99.90;;;;;;5061152;28;20081;-72
2023/04/21 00:27:14;;;;;;;39.50;20.20;;;7.70;99.90;;;;;;5061667;28;20029;-73
2023/04/21 00:29:40;;;;;;;48.10;20.60;;;7.70;99.90;;;;;;5061878;28;20698;-71
2023/04/21 00:32:09;;;;;;;37.95;20.02;;;7.70;99.90;;;;;;5060133;28;20121;-73
2023/04/21 00:34:35;;;;;;;44.00;21.60;;;7.70;99.90;;;;;;5060343;28;20021;-71
2023/04/21 00:37:01;;;;;;;43.88;21.13;;;7.60;99.90;;;;;;5060332;28;20029;-70
2023/04/21 00:39:27;;;;;;;41.53;21.35;;;7.60;99.90;;;;;;5061660;28;20028;-71
2023/04/21 00:41:53;;;;;;;44.08;21.05;;;7.60;99.90;;;;;;5060006;28;20037;-70
2023/04/21 00:44:18;;;;;;;42.55;21.23;;;7.60;99.90;;;;;;5060037;28;20044;-71
2023/04/21 00:46:44;;;;;;;46.35;21.42;;;7.50;99.90;;;;;;5061789;28;20063;-73
2023/04/21 00:49:12;;;;;;;51.78;23.65;;;7.50;99.90;;;;;;5061610;28;20094;-73
2023/04/21 00:51:37;;;;;;;43.60;21.48;;;7.50;99.90;;;;;;5061520;28;20029;-73
2023/04/21 00:54:04;;;;;;;45.17;22.58;;;7.50;99.90;;;;;;5060338;28;20059;-71
2023/04/21 00:56:32;;;;;;;47.78;22.65;;;7.50;99.90;;;;;;5061332;28;20021;-73
2023/04/21 00:59:00;;;;;;;47.17;22.85;;;7.50;99.90;;;;;;5061129;28;20106;-71
2023/04/21 01:01:29;;;;;;;53.92;23.08;;;7.50;99.90;;;;;;5060082;28;20035;-72
2023/04/21 01:04:00;;;;;;;49.00;22.75;;;7.40;99.90;;;;;;5060890;28;20048;-71
2023/04/21 01:06:31;;;;;;;47.65;23.27;;;7.40;99.90;;;;;;5060961;28;20025;-73
2023/04/21 01:08:57;;;;;;;55.28;23.52;;;7.40;99.90;;;;;;5059875;28;20036;-75
2023/04/21 01:11:23;;;;;;;48.75;23.52;;;7.40;99.90;;;;;;5060005;28;20162;-70
2023/04/21 01:13:53;;;;;;;49.28;23.83;;;7.30;99.90;;;;;;5060698;28;20107;-72
2023/04/21 01:16:22;;;;;;;44.10;22.75;;;7.30;99.90;;;;;;5059458;28;20025;-72
2023/04/21 01:18:52;;;;;;;49.42;23.00;;;7.30;99.90;;;;;;5059878;28;20029;-70
2023/04/21 01:21:19;;;;;;;45.88;22.30;;;7.30;99.90;;;;;;5060935;28;20052;-71
2023/04/21 01:23:45;;;;;;;43.80;22.00;;;7.30;99.90;;;;;;5060407;28;20025;-71
2023/04/21 01:26:11;;;;;;;42.72;21.60;;;7.30;99.90;;;;;;5059793;28;20044;-71
2023/04/21 01:28:36;;;;;;;52.38;23.48;;;7.30;99.90;;;;;;5060780;28;20386;-73
2023/04/21 01:31:03;;;;;;;44.80;22.30;;;7.30;99.90;;;;;;5060322;28;20053;-73
2023/04/21 01:33:29;;;;;;;51.25;22.67;;;7.20;99.90;;;;;;5060728;28;20024;-73
2023/04/21 01:35:54;;;;;;;48.92;22.65;;;7.20;99.90;;;;;;5060842;28;20032;-71
2023/04/21 01:38:20;;;;;;;48.42;22.73;;;7.20;99.90;;;;;;5060525;28;20032;-71
2023/04/21 01:40:49;;;;;;;50.90;23.38;;;7.20;99.90;;;;;;5060628;28;20025;-71
2023/04/21 01:43:17;;;;;;;51.85;22.15;;;7.20;99.90;;;;;;5060253;28;20017;-70
2023/04/21 01:45:43;;;;;;;43.25;22.70;;;7.20;99.90;;;;;;5058316;28;20058;-72
2023/04/21 01:48:08;;;;;;;41.70;21.20;;;7.20;99.90;;;;;;5059691;28;20017;-71
2023/04/21 01:50:34;;;;;;;47.55;22.27;;;7.20;99.90;;;;;;5060199;28;20056;-70
2023/04/21 01:52:59;;;;;;;45.85;22.73;;;7.20;99.90;;;;;;5060580;28;20017;-71
2023/04/21 01:55:25;;;;;;;49.95;23.25;;;7.20;99.90;;;;;;5060403;28;20044;-71
2023/04/21 01:57:51;;;;;;;41.60;22.02;;;7.20;99.90;;;;;;5060727;28;20036;-71
2023/04/21 02:00:17;;;;;;;44.38;21.52;;;7.20;99.90;;;;;;5060243;28;20029;-70
2023/04/21 02:02:42;;;;;;;49.58;22.85;;;7.20;99.90;;;;;;5059095;28;20063;-71
2023/04/21 02:05:08;;;;;;;40.20;21.48;;;7.20;99.90;;;;;;5060246;28;20029;-71
2023/04/21 02:07:34;;;;;;;51.25;23.00;;;7.20;99.90;;;;;;5060008;28;20493;-71
2023/04/21 02:09:59;;;;;;;50.83;22.65;;;7.20;99.90;;;;;;5058271;28;20041;-71
2023/04/21 02:12:25;;;;;;;50.03;22.10;;;7.20;99.90;;;;;;5059080;28;20054;-75
2023/04/21 02:14:51;;;;;;;40.67;21.75;;;7.20;99.90;;;;;;5060270;28;20085;-72
2023/04/21 02:17:16;;;;;;;46.20;22.08;;;7.10;99.90;;;;;;5060064;28;20024;-70
2023/04/21 02:19:42;;;;;;;49.78;22.15;;;7.10;99.90;;;;;;5059723;28;20508;-70
2023/04/21 02:22:09;;;;;;;47.63;23.10;;;7.10;99.90;;;;;;5059515;28;20032;-72
2023/04/21 02:24:35;;;;;;;50.05;22.92;;;7.10;99.90;;;;;;5059807;28;20044;-72
2023/04/21 02:27:01;;;;;;;46.10;22.23;;;7.10;99.90;;;;;;5058991;28;20028;-73
2023/04/21 02:29:27;;;;;;;42.65;21.48;;;7.10;99.90;;;;;;5059433;28;20076;-72
2023/04/21 02:31:53;;;;;;;47.63;22.67;;;7.10;99.90;;;;;;5059580;28;20072;-71
2023/04/21 02:34:19;;;;;;;42.80;22.73;;;7.10;99.90;;;;;;5058358;28;20536;-74
2023/04/21 02:36:45;;;;;;;45.10;22.65;;;7.00;99.90;;;;;;5059762;28;20028;-71
2023/04/21 02:39:11;;;;;;;50.78;22.38;;;7.00;99.90;;;;;;5058278;28;20033;-71
2023/04/21 02:41:37;;;;;;;46.03;23.35;;;7.00;99.90;;;;;;5057420;28;20025;-71
2023/04/21 02:44:02;;;;;;;43.60;22.05;;;7.00;99.90;;;;;;5059444;28;20036;-70
2023/04/21 02:46:28;;;;;;;45.80;21.20;;;7.00;99.90;;;;;;5058529;28;20092;-72
2023/04/21 02:48:54;;;;;;;43.13;21.80;;;7.00;99.90;;;;;;5058453;28;20033;-72
2023/04/21 02:51:20;;;;;;;50.22;22.77;;;7.00;99.90;;;;;;5059494;28;20037;-75
2023/04/21 02:53:45;;;;;;;47.15;22.05;;;7.00;99.90;;;;;;5057105;28;20028;-74
2023/04/21 02:56:11;;;;;;;43.42;23.15;;;7.00;99.90;;;;;;5059033;28;20055;-71
2023/04/21 02:58:36;;;;;;;49.92;22.67;;;7.00;99.90;;;;;;5062803;28;20025;-71
2023/04/21 03:01:03;;;;;;;46.83;21.77;;;7.00;99.90;;;;;;5062023;28;20028;-72
2023/04/21 03:03:30;;;;;;;43.35;22.77;;;7.00;99.90;;;;;;5062731;28;20025;-71
2023/04/21 03:05:57;;;;;;;50.30;23.02;;;6.90;99.90;;;;;;5063023;28;20025;-71
2023/04/21 03:08:22;;;;;;;49.22;23.55;;;6.90;99.90;;;;;;5063093;28;20036;-73
2023/04/21 03:10:48;;;;;;;50.72;22.58;;;6.90;99.90;;;;;;5063220;28;20044;-74
2023/04/21 03:13:14;;;;;;;40.45;21.35;;;6.90;99.90;;;;;;5063295;28;20555;-71
2023/04/21 03:15:39;;;;;;;48.45;23.20;;;6.90;99.90;;;;;;5061177;28;20090;-72
2023/04/21 03:18:05;;;;;;;44.55;23.25;;;6.90;99.90;;;;;;5061614;28;20025;-72
2023/04/21 03:20:30;;;;;;;46.50;21.88;;;6.80;99.90;;;;;;5063037;28;20029;-72
2023/04/21 03:22:56;;;;;;;49.40;22.75;;;6.80;99.90;;;;;;5063304;28;20036;-72
2023/04/21 03:25:22;;;;;;;50.33;21.52;;;6.80;99.90;;;;;;5063394;28;20017;-73
2023/04/21 03:27:48;;;;;;;45.08;22.08;;;6.80;99.90;;;;;;5063338;28;20359;-72
2023/04/21 03:30:13;;;;;;;39.55;21.40;;;6.80;99.90;;;;;;5061839;28;20041;-72
2023/04/21 03:32:39;;;;;;;40.97;21.52;;;6.80;99.90;;;;;;5061177;28;20025;-72
2023/04/21 03:35:05;;;;;;;47.03;22.40;;;6.80;99.90;;;;;;5062870;28;20032;-71
2023/04/21 03:37:30;;;;;;;44.35;21.83;;;6.80;99.90;;;;;;5062790;28;20025;-72
2023/04/21 03:39:56;;;;;;;42.13;21.67;;;6.80;99.90;;;;;;5063061;28;20021;-73
2023/04/21 03:42:22;;;;;;;47.03;20.88;;;6.80;99.90;;;;;;5063360;28;20029;-72
2023/04/21 03:44:47;;;;;;;44.83;22.25;;;6.80;99.90;;;;;;5063136;28;20432;-73
2023/04/21 03:47:14;;;;;;;41.53;21.00;;;6.70;99.90;;;;;;5061922;28;20033;-73
2023/04/21 03:49:40;;;;;;;41.05;21.58;;;6.70;99.90;;;;;;5062827;28;20204;-72
2023/04/21 03:52:05;;;;;;;47.67;21.30;;;6.70;99.90;;;;;;5061223;28;20100;-72
2023/04/21 03:54:31;;;;;;;42.13;21.13;;;6.70;99.90;;;;;;5062592;28;20021;-74
2023/04/21 03:56:57;;;;;;;42.92;19.65;;;6.70;99.90;;;;;;5062839;28;20013;-71
2023/04/21 03:59:23;;;;;;;44.63;22.00;;;6.70;99.90;;;;;;5062646;28;20029;-72
2023/04/21 04:01:48;;;;;;;47.47;20.55;;;6.70;99.90;;;;;;5062856;28;20049;-71
2023/04/21 04:04:14;;;;;;;42.90;19.88;;;6.70;99.90;;;;;;5061196;28;20025;-72
2023/04/21 04:06:39;;;;;;;46.03;21.73;;;6.70;99.90;;;;;;5061982;28;20029;-71
2023/04/21 04:09:05;;;;;;;45.95;21.75;;;6.60;99.90;;;;;;5061186;28;20037;-72
2023/04/21 04:11:31;;;;;;;44.08;20.73;;;6.60;99.90;;;;;;5062395;28;20025;-71
2023/04/21 04:13:57;;;;;;;41.13;21.20;;;6.70;99.90;;;;;;5062370;28;20025;-73
2023/04/21 04:16:23;;;;;;;39.47;20.35;;;6.70;99.90;;;;;;5061673;28;20025;-73
2023/04/21 04:18:49;;;;;;;41.40;21.25;;;6.70;99.90;;;;;;5062225;28;20027;-72
2023/04/21 04:21:15;;;;;;;45.78;21.00;;;6.70;99.90;;;;;;5060926;28;20036;-72
2023/04/21 04:23:41;;;;;;;42.88;21.25;;;6.70;99.90;;;;;;5062402;28;20068;-73
2023/04/21 04:26:08;;;;;;;45.63;20.98;;;6.60;99.90;;;;;;5063204;28;20029;-72
2023/04/21 04:28:34;;;;;;;39.78;19.98;;;6.70;99.90;;;;;;5062821;28;20021;-71
2023/04/21 04:31:00;;;;;;;38.60;20.60;;;6.60;99.90;;;;;;5062607;28;20033;-69
2023/04/21 04:33:26;;;;;;;50.15;20.90;;;6.70;99.90;;;;;;5063472;28;20033;-69
2023/04/21 04:35:51;;;;;;;36.05;20.38;;;6.60;99.90;;;;;;5062779;28;20048;-70
2023/04/21 04:38:17;;;;;;;39.22;19.08;;;6.70;99.90;;;;;;5063304;28;20051;-69
2023/04/21 04:40:43;;;;;;;42.53;20.50;;;6.70;99.90;;;;;;5063044;28;20079;-69
2023/04/21 04:43:09;;;;;;;42.17;20.63;;;6.70;99.90;;;;;;5063098;28;20055;-69
2023/04/21 04:45:36;;;;;;;40.67;19.70;;;6.70;99.90;;;;;;5062891;28;20048;-69
2023/04/21 04:48:02;;;;;;;35.88;19.85;;;6.60;99.90;;;;;;5062854;28;20109;-69
2023/04/21 04:50:28;;;;;;;39.72;20.10;;;6.70;99.90;;;;;;5062462;28;20032;-70
2023/04/21 04:52:55;;;;;;;38.47;18.77;;;6.70;99.90;;;;;;5062947;28;20025;-70
2023/04/21 04:55:21;;;;;;;40.05;18.52;;;6.80;99.90;;;;;;5062428;28;20017;-69
2023/04/21 04:57:47;;;;;;;44.20;20.05;;;6.80;99.90;;;;;;5062954;28;20080;-69
2023/04/21 05:00:13;;;;;;;45.53;19.45;;;6.80;99.90;;;;;;5062780;28;20028;-70
2023/04/21 05:02:39;;;;;;;39.05;18.73;;;6.90;99.90;;;;;;5062602;28;20021;-69
2023/04/21 05:05:06;;;;;;;38.88;18.50;;;6.90;99.90;;;;;;5062417;28;20027;-70
2023/04/21 05:07:33;;;;;;;46.50;19.15;;;6.90;99.90;;;;;;5061617;28;20057;-69
2023/04/21 05:09:58;;;;;;;34.83;18.70;;;6.90;99.90;;;;;;5062478;28;20037;-70
2023/04/21 05:12:24;;;;;;;39.78;18.25;;;7.00;99.90;;;;;;5062464;28;20085;-69
2023/04/21 05:14:50;;;;;;;40.05;18.50;;;7.10;99.90;;;;;;5061549;28;20096;-70
2023/04/21 05:17:15;;;;;;;35.60;17.92;;;7.10;99.90;;;;;;5061846;28;20082;-69
2023/04/21 05:19:41;;;;;;;33.88;18.77;;;7.10;99.90;;;;;;5061042;28;20052;-69
2023/04/21 05:22:06;;;;;;;32.35;17.73;;;7.10;99.90;;;;;;5062036;28;20088;-69
2023/04/21 05:24:33;;;;;;;37.80;18.42;;;7.20;99.90;;;;;;5061471;28;20025;-70
2023/04/21 05:27:08;;;;;;;33.25;18.25;;;7.20;99.90;;;;;;5062179;28;20077;-70
2023/04/21 05:29:34;;;;;;;34.28;17.55;;;7.30;99.90;;;;;;5058371;28;20071;-70
2023/04/21 05:32:00;;;;;;;38.25;18.00;;;7.30;99.90;;;;;;5060805;28;20029;-70
2023/04/21 05:34:25;;;;;;;38.63;18.20;;;7.30;99.90;;;;;;5060712;28;20032;-69
2023/04/21 05:36:52;;;;;;;43.55;17.65;;;7.40;99.90;;;;;;5061835;28;20683;-69
2023/04/21 05:39:17;;;;;;;34.50;17.50;;;7.50;99.90;;;;;;5056629;28;20032;-70
2023/04/21 05:41:43;;;;;;;35.10;17.00;;;7.50;99.90;;;;;;5060283;28;20049;-69
2023/04/21 05:44:09;;;;;;;32.60;16.58;;;7.60;99.90;;;;;;5061282;28;20040;-69
2023/04/21 05:46:34;;;;;;;32.00;17.10;;;7.60;99.90;;;;;;5058172;28;20029;-70
2023/04/21 05:49:03;;;;;;;37.30;17.05;;;7.70;99.90;;;;;;5061712;28;20025;-69
2023/04/21 05:51:29;;;;;;;43.17;18.30;;;7.70;99.90;;;;;;5058743;28;20025;-69
2023/04/21 05:53:55;;;;;;;33.30;16.88;;;7.80;99.90;;;;;;5060293;28;20029;-69
2023/04/21 05:56:21;;;;;;;34.63;17.75;;;7.90;99.90;;;;;;5060329;28;20047;-71
2023/04/21 05:58:47;;;;;;;35.80;16.95;;;8.00;99.90;;;;;;5060728;28;20017;-68
2023/04/21 06:01:12;;;;;;;34.50;17.38;;;8.10;99.90;;;;;;5058457;28;20099;-69
2023/04/21 06:03:38;;;;;;;31.60;17.05;;;8.10;99.90;;;;;;5060806;28;20039;-69
2023/04/21 06:06:05;;;;;;;31.25;16.73;;;8.20;99.90;;;;;;5060721;28;20054;-69
2023/04/21 06:08:31;;;;;;;37.88;17.40;;;8.30;99.90;;;;;;5061062;28;20032;-70
2023/04/21 06:10:56;;;;;;;32.40;17.65;;;8.40;99.90;;;;;;5060709;28;20416;-69
2023/04/21 06:13:22;;;;;;;41.35;16.85;;;8.50;99.90;;;;;;5061353;28;20049;-70
2023/04/21 06:15:51;;;;;;;35.38;15.18;;;8.60;99.90;;;;;;5061083;28;20021;-69
2023/04/21 06:18:17;;;;;;;34.50;16.38;;;8.70;99.90;;;;;;5061314;28;20025;-69
2023/04/21 06:20:50;;;;;;;28.52;15.90;;;8.80;99.90;;;;;;5059493;28;20032;-69
2023/04/21 06:23:15;;;;;;;32.83;16.02;;;8.80;99.90;;;;;;5060040;28;20036;-69
2023/04/21 06:25:41;;;;;;;34.60;16.17;;;8.90;99.90;;;;;;5059604;28;20033;-70
2023/04/21 06:28:07;;;;;;;32.05;15.77;;;9.00;99.90;;;;;;5060958;28;20077;-70
2023/04/21 06:30:32;;;;;;;23.75;15.60;;;9.10;99.90;;;;;;5059476;28;20083;-70
2023/04/21 06:32:58;;;;;;;31.75;16.05;;;9.20;99.90;;;;;;5059855;28;20045;-70
2023/04/21 06:35:23;;;;;;;34.30;15.55;;;9.30;99.90;;;;;;5060651;28;20032;-70
2023/04/21 06:37:50;;;;;;;33.63;16.13;;;9.40;99.90;;;;;;5058494;28;20053;-69
2023/04/21 06:40:16;;;;;;;32.08;16.13;;;9.50;99.90;;;;;;5059941;28;20029;-69
2023/04/21 06:42:42;;;;;;;31.00;16.33;;;9.60;99.90;;;;;;5060410;28;20017;-70
2023/04/21 06:45:08;;;;;;;30.17;15.25;;;9.70;99.90;;;;;;5059593;28;20482;-69
2023/04/21 06:47:33;;;;;;;32.58;16.45;;;9.80;99.90;;;;;;5059140;28;20036;-68
2023/04/21 06:49:59;;;;;;;27.52;15.82;;;9.90;99.90;;;;;;5058074;28;20044;-71
2023/04/21 06:52:25;;;;;;;32.40;15.55;;;10.00;99.90;;;;;;5056889;28;20033;-70
2023/04/21 06:54:50;;;;;;;30.65;16.05;;;10.10;99.90;;;;;;5059819;28;20385;-69
2023/04/21 06:57:16;;;;;;;32.20;16.08;;;10.10;99.90;;;;;;5059510;28;20103;-69
2023/04/21 06:59:42;;;;;;;27.98;14.73;;;10.30;99.90;;;;;;5058630;28;20393;-70
2023/04/21 07:02:08;;;;;;;31.65;15.23;;;10.30;99.90;;;;;;5060499;28;20048;-69
2023/04/21 07:04:34;;;;;;;28.52;15.57;;;10.40;99.90;;;;;;5058439;28;20067;-68
2023/04/21 07:06:59;;;;;;;24.42;14.98;;;10.60;99.90;;;;;;5053263;28;20025;-70
2023/04/21 07:09:27;;;;;;;26.63;15.20;;;10.70;99.90;;;;;;5055621;28;20033;-71
2023/04/21 07:11:54;;;;;;;33.97;15.93;;;10.80;99.90;;;;;;5059947;28;20028;-69
2023/04/21 07:14:20;;;;;;;24.80;14.93;;;10.90;99.90;;;;;;5058786;28;20050;-70
2023/04/21 07:16:46;;;;;;;26.50;15.52;;;11.10;99.90;;;;;;5058439;28;20090;-68
2023/04/21 07:19:11;;;;;;;26.60;14.35;;;11.20;99.90;;;;;;5060605;28;20059;-69
2023/04/21 07:21:37;;;;;;;29.40;15.23;;;11.30;99.90;;;;;;5059876;28;20021;-69
2023/04/21 07:24:04;;;;;;;30.50;15.25;;;11.40;99.90;;;;;;5060412;28;20088;-69
2023/04/21 07:26:30;;;;;;;32.58;15.63;;;11.50;99.90;;;;;;5058112;28;20052;-69
2023/04/21 07:28:57;;;;;;;27.52;14.73;;;11.70;99.90;;;;;;5060306;28;20374;-71
2023/04/21 07:31:23;;;;;;;26.98;14.07;;;11.90;99.90;;;;;;5058809;28;20025;-69
2023/04/21 07:33:49;;;;;;;29.83;14.95;;;11.80;99.90;;;;;;5060450;28;20021;-69
2023/04/21 07:36:15;;;;;;;33.70;15.75;;;11.90;99.90;;;;;;5058910;28;20060;-69
2023/04/21 07:38:42;;;;;;;28.80;14.63;;;12.10;99.90;;;;;;5058434;28;20039;-69
2023/04/21 07:41:11;;;;;;;24.08;14.07;;;12.20;99.90;;;;;;5058197;28;20197;-70
2023/04/21 07:43:37;;;;;;;24.85;14.77;;;12.30;99.90;;;;;;5055496;28;20029;-69
2023/04/21 07:46:04;;;;;;;27.15;15.02;;;12.50;99.90;;;;;;5062780;28;20048;-69
2023/04/21 07:48:29;;;;;;;24.50;14.35;;;12.60;99.90;;;;;;5063599;28;20017;-69
2023/04/21 07:50:57;;;;;;;25.80;14.48;;;12.80;99.90;;;;;;5060901;28;20047;-71
2023/04/21 07:53:23;;;;;;;24.83;14.38;;;12.90;99.90;;;;;;5060027;28;20040;-70
2023/04/21 07:55:49;;;;;;;23.25;13.45;;;13.00;99.90;;;;;;5061832;28;20029;-69
2023/04/21 07:58:15;;;;;;;25.58;13.60;;;13.10;99.90;;;;;;5063244;28;20021;-69
2023/04/21 08:00:41;;;;;;;28.85;13.43;;;13.30;99.90;;;;;;5062082;28;20388;-70
2023/04/21 08:03:07;;;;;;;31.55;14.25;;;13.40;99.90;;;;;;5060981;28;20079;-69
2023/04/21 08:05:33;;;;;;;24.42;14.02;;;13.50;99.90;;;;;;5057470;28;20401;-70
2023/04/21 08:08:02;;;;;;;28.42;13.48;;;13.60;99.90;;;;;;5052496;28;20028;-71
2023/04/21 08:10:28;;;;;;;33.80;13.70;;;13.70;99.90;;;;;;5056454;28;20056;-70
2023/04/21 08:12:54;;;;;;;26.85;13.27;;;13.80;99.90;;;;;;5058258;28;20017;-73
2023/04/21 08:15:21;;;;;;;25.98;12.65;;;13.90;99.90;;;;;;5056182;28;20048;-71
2023/04/21 08:17:46;;;;;;;27.75;13.65;;;13.90;99.90;;;;;;5060640;28;20043;-69
2023/04/21 08:20:12;;;;;;;24.52;14.38;;;14.10;99.90;;;;;;5058320;28;20449;-69
2023/04/21 08:22:38;;;;;;;25.23;13.85;;;14.20;99.90;;;;;;5060909;28;20037;-69
2023/04/21 08:25:04;;;;;;;28.10;13.27;;;14.30;99.90;;;;;;5061270;28;20032;-70
2023/04/21 08:27:31;;;;;;;23.88;12.70;;;14.40;99.90;;;;;;5063163;28;20025;-71
2023/04/21 08:29:56;;;;;;;31.05;13.02;;;14.60;99.90;;;;;;5062147;28;20091;-69
2023/04/21 08:32:23;;;;;;;24.42;12.27;;;14.80;99.90;;;;;;5062684;28;20025;-69
2023/04/21 08:34:53;;;;;;;21.27;12.13;;;15.00;99.90;;;;;;5062020;28;20114;-72
2023/04/21 08:37:20;;;;;;;25.88;13.10;;;15.20;99.90;;;;;;5061980;28;20096;-69
2023/04/21 08:39:45;;;;;;;19.05;11.88;;;15.30;99.90;;;;;;5060380;28;20100;-70
2023/04/21 08:42:16;;;;;;;24.90;12.50;;;15.50;99.90;;;;;;5061464;28;20052;-70
2023/04/21 08:44:42;;;;;;;23.90;12.73;;;15.70;99.90;;;;;;5060651;28;20049;-70
2023/04/21 08:47:10;;;;;;;21.33;12.18;;;15.90;99.90;;;;;;5061391;28;20021;-73
2023/04/21 08:49:37;;;;;;;17.50;11.65;;;16.00;99.90;;;;;;5060892;28;20037;-73
2023/04/21 08:52:03;;;;;;;25.25;12.15;;;16.10;99.90;;;;;;5060694;28;20059;-70
2023/04/21 08:54:29;;;;;;;18.08;11.63;;;16.40;99.90;;;;;;5060475;28;20036;-71
2023/04/21 08:56:55;;;;;;;26.42;11.82;;;16.40;99.90;;;;;;5061147;28;20029;-70
2023/04/21 08:59:21;;;;;;;17.08;11.05;;;16.60;99.90;;;;;;5061445;28;20048;-70
2023/04/21 09:02:12;;;;;;;22.75;11.98;;;16.70;99.90;;;;;;5057924;28;20044;-69
2023/04/21 09:04:39;;;;;;;18.73;11.57;;;16.80;99.90;;;;;;5061505;28;20025;-70
2023/04/21 09:07:05;;;;;;;19.52;11.07;;;16.90;99.90;;;;;;5061256;28;20057;-70
2023/04/21 09:09:31;;;;;;;20.73;11.75;;;17.00;99.90;;;;;;5060005;28;20052;-70
2023/04/21 09:12:00;;;;;;;24.35;12.40;;;17.10;99.90;;;;;;5062815;28;20029;-72
2023/04/21 09:14:32;;;;;;;22.00;11.90;;;17.20;99.90;;;;;;5061764;28;20044;-70
2023/04/21 09:17:04;;;;;;;30.65;12.68;;;17.40;99.90;;;;;;5061611;28;20033;-70
2023/04/21 09:19:32;;;;;;;21.13;11.75;;;17.50;99.90;;;;;;5060681;28;20477;-70
2023/04/21 09:22:00;;;;;;;21.17;12.18;;;17.60;99.90;;;;;;5062454;28;20029;-71
2023/04/21 09:24:26;;;;;;;18.58;11.50;;;17.70;99.90;;;;;;5060040;28;20029;-70
2023/04/21 09:26:52;;;;;;;19.42;11.68;;;17.80;99.90;;;;;;5056391;28;20056;-71
2023/04/21 09:29:25;;;;;;;19.15;11.32;;;18.00;99.90;;;;;;5060498;28;20049;-70
2023/04/21 09:31:51;;;;;;;19.45;11.25;;;18.10;99.90;;;;;;5061728;28;20024;-70
2023/04/21 09:34:23;;;;;;;18.85;10.73;;;18.30;99.90;;;;;;5062854;28;20595;-70
2023/04/21 09:37:04;;;;;;;18.92;10.02;;;18.40;99.90;;;;;;5062855;28;20036;-69
2023/04/21 09:39:30;;;;;;;19.30;10.18;;;18.50;99.90;;;;;;5062663;28;20021;-72
2023/04/21 09:41:57;;;;;;;18.08;10.80;;;18.60;99.90;;;;;;5060590;28;20063;-70
2023/04/21 09:44:24;;;;;;;18.85;10.48;;;18.70;99.90;;;;;;5058925;28;20072;-69
2023/04/21 09:46:57;;;;;;;21.63;10.52;;;18.80;99.90;;;;;;5062071;28;20186;-70
2023/04/21 09:49:23;;;;;;;18.15;10.27;;;18.90;99.90;;;;;;5061805;28;20041;-70
2023/04/21 09:51:50;;;;;;;16.48;10.40;;;19.10;99.90;;;;;;5061119;28;20021;-70
2023/04/21 09:54:19;;;;;;;16.17;9.80;;;19.30;99.90;;;;;;5061408;28;20041;-71
2023/04/21 09:56:51;;;;;;;16.35;9.98;;;19.40;99.90;;;;;;5061829;28;20068;-70
2023/04/21 09:59:23;;;;;;;19.55;9.82;;;19.50;99.90;;;;;;5062002;28;20032;-69
2023/04/21 10:01:50;;;;;;;19.15;10.32;;;19.60;99.90;;;;;;5061200;28;20047;-70
2023/04/21 10:04:17;;;;;;;20.85;10.15;;;19.60;99.90;;;;;;5061764;28;20249;-69
2023/04/21 10:06:43;;;;;;;15.52;10.18;;;19.60;99.90;;;;;;5060190;28;20028;-70
2023/04/21 10:09:12;;;;;;;18.13;10.20;;;19.60;99.90;;;;;;5059925;28;20041;-69
2023/04/21 10:11:38;;;;;;;17.55;10.30;;;19.70;99.90;;;;;;5061871;28;20020;-69
2023/04/21 10:14:03;;;;;;;17.52;9.65;;;19.80;99.90;;;;;;5062223;28;20028;-69
2023/04/21 10:16:29;;;;;;;16.77;9.77;;;19.80;99.90;;;;;;5062007;28;20025;-71
2023/04/21 10:18:54;;;;;;;18.98;9.80;;;19.90;99.90;;;;;;5061579;28;20024;-69
2023/04/21 10:21:23;;;;;;;20.80;10.57;;;20.00;99.90;;;;;;5060931;28;20035;-69
2023/04/21 10:23:50;;;;;;;18.38;10.10;;;20.10;99.90;;;;;;5059700;28;20025;-70
2023/04/21 10:26:25;;;;;;;15.73;10.00;;;20.30;99.90;;;;;;5061381;28;20527;-70
2023/04/21 10:29:05;;;;;;;14.43;9.77;;;20.40;99.90;;;;;;5061016;28;20056;-71
2023/04/21 10:31:52;;;;;;;19.90;11.05;;;20.60;99.90;;;;;;5062027;28;20041;-71
2023/04/21 10:34:28;;;;;;;17.48;10.52;;;20.80;99.90;;;;;;5060355;28;20051;-71
2023/04/21 10:36:54;;;;;;;15.63;8.32;;;21.00;99.90;;;;;;5060168;28;20517;-69
2023/04/21 10:39:27;;;;;;;15.80;9.27;;;21.20;99.90;;;;;;5060860;28;20029;-72
2023/04/21 10:41:57;;;;;;;14.07;9.45;;;21.30;99.90;;;;;;5062163;28;20025;-70
2023/04/21 10:44:23;;;;;;;15.00;9.57;;;21.40;99.90;;;;;;5059962;28;20049;-72
2023/04/21 10:46:53;;;;;;;17.48;9.32;;;21.50;99.90;;;;;;5062033;28;20067;-71
2023/04/21 10:49:24;;;;;;;13.05;8.57;;;21.50;99.90;;;;;;5060876;28;20041;-70
2023/04/21 10:51:58;;;;;;;18.05;8.65;;;21.50;99.90;;;;;;5058661;28;20035;-70
2023/04/21 10:54:25;;;;;;;18.48;9.48;;;21.50;99.90;;;;;;5061995;28;20037;-70
2023/04/21 10:56:52;;;;;;;14.60;8.77;;;21.60;99.90;;;;;;5060336;28;20025;-70
2023/04/21 10:59:19;;;;;;;13.15;8.70;;;21.80;99.90;;;;;;5061214;28;20044;-71
2023/04/21 11:01:44;;;;;;;17.70;9.13;;;22.00;99.90;;;;;;5060634;28;20032;-69
2023/04/21 11:04:14;;;;;;;16.05;9.23;;;22.10;99.90;;;;;;5061504;28;20670;-69
2023/04/21 11:06:40;;;;;;;12.60;8.23;;;22.30;99.90;;;;;;5060614;28;20031;-70
2023/04/21 11:09:06;;;;;;;12.90;8.38;;;22.30;99.90;;;;;;5061163;28;20391;-69
2023/04/21 11:11:31;;;;;;;12.15;8.63;;;22.40;99.90;;;;;;5060870;28;20049;-69
2023/04/21 11:14:00;;;;;;;17.40;8.85;;;22.50;99.90;;;;;;5060958;28;20033;-73
2023/04/21 11:16:26;;;;;;;18.45;8.80;;;22.60;99.90;;;;;;5059698;28;20024;-70
2023/04/21 11:18:51;;;;;;;15.35;8.27;;;22.60;99.90;;;;;;5061486;28;20035;-73
2023/04/21 11:21:23;;;;;;;15.00;8.77;;;22.70;99.90;;;;;;5064014;28;20498;-70
2023/04/21 11:23:51;;;;;;;13.35;8.80;;;22.70;99.90;;;;;;5065275;28;20036;-69
2023/04/21 11:26:18;;;;;;;12.98;8.57;;;22.80;99.90;;;;;;5065207;28;20025;-69
2023/04/21 11:28:48;;;;;;;12.50;8.20;;;22.90;99.90;;;;;;5063850;28;20048;-69
2023/04/21 11:31:14;;;;;;;17.65;8.57;;;22.90;99.90;;;;;;5063353;28;20067;-71
2023/04/21 11:33:40;;;;;;;12.77;8.77;;;23.00;99.90;;;;;;5065220;28;20025;-71
2023/04/21 11:36:06;;;;;;;13.15;8.38;;;23.20;99.90;;;;;;5065049;28;20043;-70
2023/04/21 11:38:41;;;;;;;15.68;9.52;;;23.20;99.90;;;;;;5064455;28;20017;-71
2023/04/21 11:41:10;;;;;;;15.43;8.98;;;23.30;99.90;;;;;;5064808;28;20385;-71
2023/04/21 11:43:37;;;;;;;11.88;8.20;;;23.30;99.90;;;;;;5063763;28;20025;-69
2023/04/21 11:46:22;;;;;;;14.93;8.55;;;23.20;99.90;;;;;;5063002;28;20056;-71
2023/04/21 11:49:01;;;;;;;13.05;8.50;;;23.30;99.90;;;;;;5065006;28;20067;-69
2023/04/21 11:51:32;;;;;;;15.18;8.68;;;23.40;99.90;;;;;;5064814;28;21038;-73
2023/04/21 11:53:58;;;;;;;13.88;8.60;;;23.50;99.90;;;;;;5063439;28;20029;-71
2023/04/21 11:56:24;;;;;;;14.18;8.85;;;23.50;99.90;;;;;;5062771;28;20441;-70
2023/04/21 11:58:54;;;;;;;11.68;8.70;;;23.50;99.90;;;;;;5063277;28;20032;-72
2023/04/21 12:01:20;;;;;;;14.73;8.20;;;23.70;99.90;;;;;;5062698;28;20017;-73
2023/04/21 12:03:55;;;;;;;14.20;8.07;;;23.60;99.90;;;;;;5062953;28;20144;-71
2023/04/21 12:06:23;;;;;;;14.45;8.25;;;23.30;99.90;;;;;;5062820;28;20486;-73
2023/04/21 12:09:00;;;;;;;12.73;8.55;;;23.00;99.90;;;;;;5061429;28;20037;-71
2023/04/21 12:11:30;;;;;;;16.92;8.20;;;23.00;99.90;;;;;;5062275;28;20044;-71
2023/04/21 12:13:59;;;;;;;26.98;9.07;;;23.20;99.90;;;;;;5059246;28;20033;-72
2023/04/21 12:16:26;;;;;;;13.45;8.43;;;23.30;99.90;;;;;;5060177;28;20033;-71
2023/04/21 12:18:56;;;;;;;14.77;8.45;;;23.40;99.90;;;;;;5062554;28;20039;-71
2023/04/21 12:21:29;;;;;;;11.57;8.20;;;23.50;99.90;;;;;;5062583;28;20029;-72
2023/04/21 12:23:55;;;;;;;11.37;8.30;;;23.80;99.90;;;;;;5062216;28;20017;-72
2023/04/21 12:26:22;;;;;;;15.05;8.93;;;24.00;99.90;;;;;;5061227;28;20021;-71
2023/04/21 12:28:49;;;;;;;15.80;8.18;;;24.20;99.90;;;;;;5061469;28;20020;-71
2023/04/21 12:31:14;;;;;;;13.43;9.00;;;24.20;99.90;;;;;;5062253;28;20037;-70